Songer, Illinois
Current Conditions -  °F | °C
As of 12:55 PM on Sunday 23 Nov 2014 (Local Time) from KFOA Reporting Station
Moderate Rain Moderate Rain  
Wind Chill: 52°   Ceiling: Unl
Heat Index: 52°   Visibility: 10mi
Dew Point: 48°   Wind: 12mph
Humidity: 87%   Direction: 140°SE
Pressure: 29.56"   Gusts: NA
Location:  38.6949°N, 88.6407°W
Report Text: KFOA 231855Z AUTO 14010KT 10SM RA SCT018 11/09 A2956 RMK AO2 T01110090
Loading
Personal Weather Stations






























Interactive Weather Map New forecast layout! Learn more

10-Day Weather Forecast

Advertisements
Track Severe Weather on mobile